Time;durP1;ratioP1;P1;durP2;ratioP2;P2;SDS_P1;SDS_P2;PMS_P1;PMS_P2;Temp;Humidity;BMP_temperature;BMP_pressure;BME280_temperature;BME280_humidity;BME280_pressure;Samples;Min_cycle;Max_cycle;Signal;HPM_P1;HPM_P2
2021/08/26 00:07:45;;;;;;;15.60;12.43;;;16.70;99.90;;;;;;4994345;28;20490;-89
2021/08/26 00:10:13;;;;;;;15.27;11.20;;;16.60;99.90;;;;;;4997555;28;20466;-89
2021/08/26 00:12:40;;;;;;;14.47;12.20;;;16.60;99.90;;;;;;4998595;28;20455;-88
2021/08/26 00:15:08;;;;;;;15.57;12.10;;;16.60;99.90;;;;;;5005072;28;20462;-89
2021/08/26 00:17:35;;;;;;;13.23;10.90;;;16.60;99.90;;;;;;5003358;28;21097;-88
2021/08/26 00:20:02;;;;;;;17.10;13.50;;;16.60;99.90;;;;;;4996075;28;20447;-89
2021/08/26 00:22:29;;;;;;;14.47;12.20;;;16.50;99.90;;;;;;5002585;28;20445;-89
2021/08/26 00:24:57;;;;;;;17.97;12.97;;;16.40;99.90;;;;;;5008246;28;21005;-88
2021/08/26 00:27:24;;;;;;;15.03;12.87;;;16.30;99.90;;;;;;4995825;28;20482;-88
2021/08/26 00:29:51;;;;;;;14.80;12.07;;;16.30;99.90;;;;;;5010308;28;20449;-89
2021/08/26 00:32:17;;;;;;;15.50;12.30;;;16.20;99.90;;;;;;4995566;28;20807;-89
2021/08/26 00:34:44;;;;;;;16.10;12.40;;;16.20;99.90;;;;;;5000058;28;20446;-88
2021/08/26 00:37:11;;;;;;;15.03;12.57;;;16.10;99.90;;;;;;4997531;28;20471;-89
2021/08/26 00:39:38;;;;;;;15.00;13.27;;;16.10;99.90;;;;;;4997783;28;20466;-89
2021/08/26 00:42:07;;;;;;;14.27;11.90;;;16.10;99.90;;;;;;4998512;28;20447;-89
2021/08/26 00:44:35;;;;;;;15.93;12.80;;;16.00;99.90;;;;;;5005291;28;20439;-88
2021/08/26 00:47:02;;;;;;;18.77;13.00;;;16.00;99.90;;;;;;5009972;28;20495;-89
2021/08/26 00:49:30;;;;;;;13.90;12.10;;;16.00;99.90;;;;;;4997813;28;20804;-89
2021/08/26 00:51:57;;;;;;;14.40;12.20;;;15.90;99.90;;;;;;4998065;28;20539;-89
2021/08/26 00:54:23;;;;;;;17.87;12.80;;;15.90;99.90;;;;;;4997142;28;20478;-89
2021/08/26 00:56:50;;;;;;;16.10;13.17;;;15.80;99.90;;;;;;4997426;28;20459;-89
2021/08/26 00:59:19;;;;;;;14.53;12.37;;;15.80;99.90;;;;;;4996400;28;20447;-89
2021/08/26 01:01:48;;;;;;;14.63;13.10;;;15.80;99.90;;;;;;4996930;28;20450;-89
2021/08/26 01:04:22;;;;;;;13.30;11.27;;;15.80;99.90;;;;;;4996540;28;20848;-90
2021/08/26 01:06:57;;;;;;;16.67;12.80;;;15.70;99.90;;;;;;4996410;28;20489;-89
2021/08/26 01:09:28;;;;;;;14.77;11.30;;;15.70;99.90;;;;;;5011624;28;20454;-89
2021/08/26 01:11:57;;;;;;;16.77;12.30;;;15.60;99.90;;;;;;4996938;28;20451;-86
2021/08/26 01:14:26;;;;;;;16.97;13.07;;;15.60;99.90;;;;;;4996714;28;20465;-89
2021/08/26 01:16:52;;;;;;;15.40;13.20;;;15.60;99.90;;;;;;5001890;28;20454;-89
2021/08/26 01:19:19;;;;;;;13.53;12.10;;;15.60;99.90;;;;;;4996882;28;20443;-89
2021/08/26 01:21:46;;;;;;;14.60;13.00;;;15.60;99.90;;;;;;4997050;28;20455;-88
2021/08/26 01:24:17;;;;;;;16.23;12.77;;;15.50;99.90;;;;;;4996377;28;20532;-88
2021/08/26 01:26:49;;;;;;;15.13;12.77;;;15.50;99.90;;;;;;4996420;28;20494;-89
2021/08/26 01:29:17;;;;;;;17.63;13.30;;;15.50;99.90;;;;;;4996338;28;20461;-88
2021/08/26 01:31:45;;;;;;;16.50;13.60;;;15.40;99.90;;;;;;4997711;28;20976;-89
2021/08/26 01:34:13;;;;;;;16.83;14.23;;;15.40;99.90;;;;;;4997275;28;20451;-87
2021/08/26 01:36:39;;;;;;;14.13;11.33;;;15.40;99.90;;;;;;4998139;28;20858;-88
2021/08/26 01:39:08;;;;;;;14.10;12.23;;;15.40;99.90;;;;;;4996670;28;20447;-88
2021/08/26 01:41:44;;;;;;;15.60;11.60;;;15.40;99.90;;;;;;4996422;28;20452;-89
2021/08/26 01:44:13;;;;;;;17.10;13.80;;;15.40;99.90;;;;;;4996774;28;20533;-87
2021/08/26 01:46:40;;;;;;;14.63;13.03;;;15.40;99.90;;;;;;5005011;28;20467;-88
2021/08/26 01:49:07;;;;;;;16.30;13.67;;;15.40;99.90;;;;;;4998627;28;20454;-88
2021/08/26 01:51:34;;;;;;;15.40;12.67;;;15.30;99.90;;;;;;4995755;28;20459;-88
2021/08/26 01:54:02;;;;;;;17.43;13.77;;;15.30;99.90;;;;;;4997395;28;20435;-88
2021/08/26 01:56:28;;;;;;;16.43;12.83;;;15.30;99.90;;;;;;5019112;28;20485;-87
2021/08/26 01:58:55;;;;;;;17.93;12.73;;;15.20;99.90;;;;;;5013786;28;20447;-89
2021/08/26 02:01:23;;;;;;;14.03;12.13;;;15.30;99.90;;;;;;4996476;28;20451;-88
2021/08/26 02:03:50;;;;;;;17.20;15.40;;;15.20;99.90;;;;;;4995040;28;20457;-88
2021/08/26 02:06:17;;;;;;;15.23;13.63;;;15.30;99.90;;;;;;4995014;28;21014;-88
2021/08/26 02:08:43;;;;;;;17.53;14.20;;;15.20;99.90;;;;;;4994895;28;20509;-88
2021/08/26 02:11:10;;;;;;;17.07;14.43;;;15.20;99.90;;;;;;4994475;28;20450;-88
2021/08/26 02:13:37;;;;;;;16.67;14.63;;;15.20;99.90;;;;;;5011781;28;20427;-88
2021/08/26 02:16:04;;;;;;;14.30;12.80;;;15.10;99.90;;;;;;5007332;28;20482;-88
2021/08/26 02:18:32;;;;;;;17.10;13.60;;;15.00;99.90;;;;;;5005988;28;20508;-88
2021/08/26 02:20:59;;;;;;;20.30;14.13;;;14.90;99.90;;;;;;4993559;28;20478;-88
2021/08/26 02:23:26;;;;;;;14.73;13.00;;;14.90;99.90;;;;;;4994817;28;20455;-88
2021/08/26 02:25:52;;;;;;;15.40;13.63;;;14.80;99.90;;;;;;4994442;28;20465;-88
2021/08/26 02:28:19;;;;;;;18.63;15.07;;;14.80;99.90;;;;;;4993820;28;20478;-89
2021/08/26 02:30:46;;;;;;;18.90;14.10;;;14.90;99.90;;;;;;4994101;28;21016;-88
2021/08/26 02:33:12;;;;;;;15.73;13.87;;;14.80;99.90;;;;;;4994787;28;20948;-88
2021/08/26 02:35:41;;;;;;;12.33;11.13;;;14.80;99.90;;;;;;4994160;28;20450;-88
2021/08/26 02:38:07;;;;;;;19.30;13.97;;;14.80;99.90;;;;;;4994125;28;20470;-88
2021/08/26 02:40:34;;;;;;;19.43;12.83;;;14.70;99.90;;;;;;4993940;28;20431;-88
2021/08/26 02:43:01;;;;;;;14.77;13.07;;;14.70;99.90;;;;;;4995243;28;20450;-88
2021/08/26 02:45:27;;;;;;;15.37;13.07;;;14.70;99.90;;;;;;4995173;28;20887;-88
2021/08/26 02:47:54;;;;;;;20.23;15.07;;;14.60;99.90;;;;;;4994099;28;20497;-88
2021/08/26 02:50:21;;;;;;;16.70;13.90;;;14.60;99.90;;;;;;5013292;28;20450;-88
2021/08/26 02:52:49;;;;;;;19.47;15.90;;;14.60;99.90;;;;;;5001639;28;21163;-88
2021/08/26 02:55:15;;;;;;;26.40;14.00;;;14.60;99.90;;;;;;4994207;28;20782;-88
2021/08/26 02:57:42;;;;;;;16.20;13.90;;;14.70;99.90;;;;;;4999268;28;20856;-82
2021/08/26 03:00:10;;;;;;;20.47;13.43;;;14.80;99.90;;;;;;5001459;28;20450;-81
2021/08/26 03:02:37;;;;;;;14.17;12.67;;;14.80;99.90;;;;;;5001717;28;20435;-82
2021/08/26 03:05:04;;;;;;;18.10;13.43;;;14.90;99.90;;;;;;5005554;28;20451;-82
2021/08/26 03:07:31;;;;;;;17.67;13.40;;;14.90;99.90;;;;;;5012036;28;20490;-82
2021/08/26 03:09:59;;;;;;;16.90;14.87;;;15.00;99.90;;;;;;5005014;28;20450;-82
2021/08/26 03:12:25;;;;;;;16.23;14.33;;;14.90;99.90;;;;;;5005520;28;20451;-82
2021/08/26 03:14:52;;;;;;;17.23;13.97;;;15.00;99.90;;;;;;5012218;28;20462;-81
2021/08/26 03:17:19;;;;;;;16.17;13.20;;;15.00;99.90;;;;;;5007214;28;20463;-81
2021/08/26 03:19:45;;;;;;;15.00;13.50;;;15.00;99.90;;;;;;5007122;28;20484;-82
2021/08/26 03:22:12;;;;;;;16.53;13.27;;;15.00;99.90;;;;;;5002818;28;20529;-82
2021/08/26 03:24:39;;;;;;;18.83;12.97;;;15.10;99.90;;;;;;5001685;28;20960;-82
2021/08/26 03:27:07;;;;;;;20.90;14.37;;;15.10;99.90;;;;;;5001722;28;20467;-82
2021/08/26 03:29:34;;;;;;;17.37;13.23;;;15.10;99.90;;;;;;5000699;28;20459;-82
2021/08/26 03:32:00;;;;;;;20.00;14.70;;;15.10;99.90;;;;;;5001639;28;20468;-81
2021/08/26 03:34:27;;;;;;;19.43;15.40;;;15.10;99.90;;;;;;5001248;28;20458;-81
2021/08/26 03:36:54;;;;;;;15.87;12.70;;;15.10;99.90;;;;;;5001848;28;20471;-82
2021/08/26 03:39:20;;;;;;;14.50;12.47;;;15.20;99.90;;;;;;5002400;28;20447;-82
2021/08/26 03:41:47;;;;;;;16.63;14.83;;;15.20;99.90;;;;;;5001948;28;20455;-82
2021/08/26 03:44:15;;;;;;;16.00;13.63;;;15.30;99.90;;;;;;5002697;28;20454;-82
2021/08/26 03:46:42;;;;;;;17.07;15.20;;;15.30;99.90;;;;;;5000671;28;20475;-81
2021/08/26 03:49:08;;;;;;;17.67;14.83;;;15.30;99.90;;;;;;5001160;28;20479;-82
2021/08/26 03:51:35;;;;;;;18.70;14.40;;;15.20;99.90;;;;;;5001393;28;20435;-81
2021/08/26 03:54:02;;;;;;;17.03;14.30;;;15.10;99.90;;;;;;5001967;28;20454;-81
2021/08/26 03:56:29;;;;;;;16.80;15.00;;;15.20;99.90;;;;;;5001389;28;20463;-83
2021/08/26 03:58:55;;;;;;;17.57;14.07;;;15.10;99.90;;;;;;5001339;28;20449;-81
2021/08/26 04:01:23;;;;;;;18.80;13.63;;;15.10;99.90;;;;;;5015280;28;20423;-80
2021/08/26 04:03:50;;;;;;;17.97;13.10;;;15.00;99.90;;;;;;5015970;28;20446;-80
2021/08/26 04:06:17;;;;;;;16.50;14.47;;;15.00;99.90;;;;;;5011380;28;20474;-80
2021/08/26 04:08:43;;;;;;;16.07;14.07;;;14.90;99.90;;;;;;5003347;28;20866;-81
2021/08/26 04:11:10;;;;;;;15.47;13.30;;;14.90;99.90;;;;;;5004264;28;20451;-81
2021/08/26 04:13:37;;;;;;;17.60;13.83;;;14.90;99.90;;;;;;5004574;28;20438;-82
2021/08/26 04:16:04;;;;;;;14.67;12.87;;;15.00;99.90;;;;;;5005380;28;20855;-81
2021/08/26 04:18:32;;;;;;;17.50;13.43;;;15.00;99.90;;;;;;5003974;28;20450;-81
2021/08/26 04:20:59;;;;;;;16.10;13.90;;;15.00;99.90;;;;;;5005476;28;20849;-80
2021/08/26 04:23:25;;;;;;;17.90;13.83;;;15.10;99.90;;;;;;5006821;28;20454;-81
2021/08/26 04:25:52;;;;;;;18.83;14.83;;;15.10;99.90;;;;;;5011419;28;20467;-81
2021/08/26 04:28:19;;;;;;;25.30;18.00;;;15.10;99.90;;;;;;5007052;28;20478;-81
2021/08/26 04:30:45;;;;;;;22.50;16.77;;;15.20;99.90;;;;;;5005543;28;20476;-81
2021/08/26 04:33:13;;;;;;;23.53;19.10;;;15.20;99.90;;;;;;5004614;28;20832;-81
2021/08/26 04:35:41;;;;;;;26.27;18.93;;;15.20;99.90;;;;;;5003944;28;20451;-81
2021/08/26 04:38:07;;;;;;;24.73;15.73;;;15.20;99.90;;;;;;5005676;28;20943;-81
2021/08/26 04:40:34;;;;;;;34.23;15.43;;;15.30;99.90;;;;;;5004610;28;20451;-82
2021/08/26 04:43:01;;;;;;;25.33;14.67;;;15.30;99.90;;;;;;5004570;28;20453;-81
2021/08/26 04:45:28;;;;;;;21.30;14.90;;;15.30;99.90;;;;;;5004748;28;20951;-81
2021/08/26 04:47:54;;;;;;;22.57;15.10;;;15.30;99.90;;;;;;5004005;28;20487;-81
2021/08/26 04:50:21;;;;;;;21.43;15.83;;;15.30;99.90;;;;;;5004903;28;20451;-82
2021/08/26 04:52:49;;;;;;;25.73;17.83;;;15.30;99.90;;;;;;5004823;28;20462;-82
2021/08/26 04:55:16;;;;;;;24.83;17.37;;;15.30;99.90;;;;;;5007920;28;20446;-81
2021/08/26 04:57:43;;;;;;;24.77;18.13;;;15.30;99.90;;;;;;5018665;28;20824;-81
2021/08/26 05:00:11;;;;;;;21.87;15.47;;;15.30;99.90;;;;;;5007154;28;20447;-81
2021/08/26 05:02:37;;;;;;;30.83;17.57;;;15.30;99.90;;;;;;5004342;28;20462;-81
2021/08/26 05:05:05;;;;;;;28.90;19.27;;;15.40;99.90;;;;;;5006622;28;20454;-81
2021/08/26 05:07:31;;;;;;;30.20;20.70;;;15.40;99.90;;;;;;5004596;28;20474;-81
2021/08/26 05:09:59;;;;;;;23.10;17.20;;;15.40;99.90;;;;;;5003982;28;20486;-81
2021/08/26 05:12:26;;;;;;;23.70;17.90;;;15.40;99.90;;;;;;5004174;28;20447;-81
2021/08/26 05:14:53;;;;;;;26.70;16.43;;;15.50;99.90;;;;;;5003448;28;20462;-81
2021/08/26 05:17:19;;;;;;;22.47;16.53;;;15.50;99.90;;;;;;5004203;28;20474;-82
2021/08/26 05:19:46;;;;;;;20.30;15.90;;;15.50;99.90;;;;;;5003454;28;20447;-82
2021/08/26 05:22:13;;;;;;;22.07;16.70;;;15.60;99.90;;;;;;5003604;28;20485;-82
2021/08/26 05:24:40;;;;;;;26.67;16.40;;;15.60;99.90;;;;;;5004570;28;20448;-81
2021/08/26 05:27:08;;;;;;;23.13;18.23;;;15.60;99.90;;;;;;5003186;28;20546;-82
2021/08/26 05:29:35;;;;;;;27.90;17.80;;;15.60;99.90;;;;;;5002834;28;20478;-82
2021/08/26 05:32:02;;;;;;;23.10;17.00;;;15.70;99.90;;;;;;5002672;28;20451;-81
2021/08/26 05:34:28;;;;;;;22.47;16.10;;;15.70;99.90;;;;;;5012273;28;20479;-82
2021/08/26 05:36:55;;;;;;;22.27;16.13;;;15.70;99.90;;;;;;5003578;28;20483;-82
2021/08/26 05:39:22;;;;;;;19.67;15.20;;;15.80;99.90;;;;;;5003819;28;20450;-82
2021/08/26 05:41:48;;;;;;;16.83;14.90;;;15.80;99.90;;;;;;5004849;28;20448;-82
2021/08/26 05:44:17;;;;;;;22.07;17.60;;;15.80;99.90;;;;;;5013792;28;20451;-81
2021/08/26 05:46:45;;;;;;;22.47;17.77;;;15.90;99.90;;;;;;5007327;28;20447;-82
2021/08/26 05:49:12;;;;;;;22.30;16.70;;;15.90;99.90;;;;;;5002278;28;20838;-81
2021/08/26 05:51:38;;;;;;;20.00;16.70;;;16.00;99.90;;;;;;5004769;28;20431;-81
2021/08/26 05:54:06;;;;;;;20.03;15.57;;;16.00;99.90;;;;;;5014089;28;20461;-81
2021/08/26 05:56:33;;;;;;;19.80;15.90;;;15.90;99.90;;;;;;5010188;28;20479;-82
2021/08/26 05:59:00;;;;;;;21.93;15.67;;;16.00;99.90;;;;;;5003154;28;20443;-82
2021/08/26 06:01:29;;;;;;;18.50;14.43;;;16.00;99.90;;;;;;5013728;28;20439;-81
2021/08/26 06:03:56;;;;;;;16.67;14.90;;;16.10;99.90;;;;;;5018103;28;20439;-81
2021/08/26 06:06:23;;;;;;;17.00;12.80;;;16.10;99.90;;;;;;5008796;28;20474;-82
2021/08/26 06:08:50;;;;;;;16.40;12.80;;;16.20;99.90;;;;;;5001673;28;20485;-82
2021/08/26 06:11:17;;;;;;;16.20;13.00;;;16.20;99.90;;;;;;5003132;28;20455;-82
2021/08/26 06:13:43;;;;;;;16.67;13.07;;;16.20;99.90;;;;;;5003728;28;20454;-82
2021/08/26 06:16:10;;;;;;;14.90;13.33;;;16.20;99.90;;;;;;5002881;28;20478;-82
2021/08/26 06:18:38;;;;;;;14.33;12.90;;;16.20;99.90;;;;;;5002926;28;20446;-82
2021/08/26 06:21:05;;;;;;;16.03;12.77;;;16.20;99.90;;;;;;5002414;28;20455;-82
2021/08/26 06:23:31;;;;;;;15.90;12.40;;;16.20;99.90;;;;;;5002114;28;20454;-82
2021/08/26 06:25:58;;;;;;;22.23;12.93;;;16.30;99.90;;;;;;5002170;28;21027;-82
2021/08/26 06:28:25;;;;;;;16.63;12.10;;;16.30;99.90;;;;;;4999968;28;20507;-89
2021/08/26 06:30:52;;;;;;;19.33;12.93;;;16.40;99.90;;;;;;4995827;28;20536;-89
2021/08/26 06:33:19;;;;;;;13.80;11.93;;;16.40;99.90;;;;;;4998709;28;20459;-87
2021/08/26 06:35:47;;;;;;;12.03;10.47;;;16.40;99.90;;;;;;5001525;28;20465;-89
2021/08/26 06:38:17;;;;;;;17.03;11.90;;;16.50;99.90;;;;;;5000143;28;20455;-93
2021/08/26 06:40:48;;;;;;;13.37;11.40;;;16.50;99.90;;;;;;5001064;28;20439;-92
2021/08/26 06:43:18;;;;;;;12.17;10.77;;;16.60;99.90;;;;;;4999370;28;20453;-93
2021/08/26 06:45:55;;;;;;;11.67;10.37;;;16.70;99.90;;;;;;4998706;28;20956;-93
2021/08/26 06:48:23;;;;;;;12.00;10.77;;;16.80;99.90;;;;;;5000667;28;20444;-93
2021/08/26 06:50:52;;;;;;;12.97;10.67;;;16.80;99.90;;;;;;5017190;28;20557;-93
2021/08/26 06:53:18;;;;;;;12.57;10.80;;;16.90;99.90;;;;;;5003204;28;20435;-89
2021/08/26 06:55:45;;;;;;;14.20;11.07;;;17.00;99.90;;;;;;5010833;28;20457;-89
2021/08/26 06:58:12;;;;;;;14.10;11.53;;;17.00;99.90;;;;;;4997735;28;20440;-89
2021/08/26 07:00:39;;;;;;;14.50;9.70;;;17.00;99.90;;;;;;4995538;28;20893;-89
2021/08/26 07:03:06;;;;;;;16.63;11.07;;;17.10;99.90;;;;;;4995594;28;20458;-87
2021/08/26 07:05:33;;;;;;;12.47;11.17;;;17.10;99.90;;;;;;5000707;28;20442;-88
2021/08/26 07:08:01;;;;;;;18.57;11.03;;;17.10;99.90;;;;;;4995065;28;20450;-92
2021/08/26 07:10:28;;;;;;;12.73;10.80;;;17.10;99.90;;;;;;4995231;28;20478;-90
2021/08/26 07:12:55;;;;;;;13.20;10.97;;;17.10;99.90;;;;;;4994029;28;21162;-87
2021/08/26 07:15:24;;;;;;;13.20;11.27;;;17.20;99.90;;;;;;4994930;28;20478;-88
2021/08/26 07:17:51;;;;;;;15.50;12.13;;;17.20;99.90;;;;;;4994445;28;20467;-86
2021/08/26 07:20:18;;;;;;;12.13;10.90;;;17.30;99.90;;;;;;4994054;28;20446;-91
2021/08/26 07:22:45;;;;;;;13.30;12.00;;;17.30;99.90;;;;;;4993752;28;20956;-88
2021/08/26 07:25:13;;;;;;;12.30;11.00;;;17.40;99.90;;;;;;4994538;28;20462;-88
2021/08/26 07:27:40;;;;;;;12.80;10.93;;;17.50;99.90;;;;;;5011933;28;20447;-90
2021/08/26 07:30:08;;;;;;;13.30;11.87;;;17.50;99.90;;;;;;4997358;28;20514;-88
2021/08/26 07:32:34;;;;;;;13.37;11.97;;;17.60;99.90;;;;;;4994219;28;20924;-88
2021/08/26 07:35:01;;;;;;;16.57;12.50;;;17.70;99.90;;;;;;5002261;28;20430;-88
2021/08/26 07:37:28;;;;;;;16.50;11.90;;;17.80;99.90;;;;;;5006905;28;20479;-88
2021/08/26 07:39:54;;;;;;;15.87;11.57;;;17.80;99.90;;;;;;4993788;28;20538;-88
2021/08/26 07:42:23;;;;;;;16.40;12.30;;;17.80;99.90;;;;;;4994050;28;20431;-88
2021/08/26 07:44:49;;;;;;;13.70;11.93;;;17.90;99.90;;;;;;4997267;28;20461;-88
2021/08/26 07:47:16;;;;;;;13.97;11.87;;;17.80;99.90;;;;;;4997759;28;20834;-87
2021/08/26 07:49:43;;;;;;;14.17;11.30;;;17.90;99.90;;;;;;4998211;28;21015;-87
2021/08/26 07:52:10;;;;;;;13.63;12.33;;;17.90;99.90;;;;;;5004557;28;20456;-88
2021/08/26 07:54:36;;;;;;;13.97;12.13;;;17.90;99.90;;;;;;5001209;28;20450;-88
2021/08/26 07:57:03;;;;;;;14.43;11.67;;;18.00;99.90;;;;;;4997734;28;20477;-87
2021/08/26 07:59:33;;;;;;;13.27;11.10;;;18.10;99.90;;;;;;4997050;28;20450;-88
2021/08/26 08:02:00;;;;;;;12.47;11.17;;;18.10;99.90;;;;;;4997073;28;20455;-88
2021/08/26 08:04:27;;;;;;;15.77;12.90;;;18.00;99.90;;;;;;5019563;28;20449;-93
2021/08/26 08:06:53;;;;;;;12.03;10.80;;;18.10;99.90;;;;;;5016777;28;20850;-88
2021/08/26 08:09:20;;;;;;;16.60;11.40;;;18.10;99.90;;;;;;4997776;28;20482;-88
2021/08/26 08:11:47;;;;;;;14.13;10.53;;;18.20;99.90;;;;;;4997791;28;20824;-89
2021/08/26 08:14:14;;;;;;;12.00;10.70;;;18.20;99.90;;;;;;4997590;28;20800;-88
2021/08/26 08:16:42;;;;;;;11.87;10.33;;;18.10;99.90;;;;;;5004669;28;20494;-89
2021/08/26 08:19:08;;;;;;;14.63;10.37;;;18.00;99.90;;;;;;4997868;28;20439;-89
2021/08/26 08:21:35;;;;;;;15.33;12.30;;;18.00;99.90;;;;;;4998338;28;20509;-91
2021/08/26 08:24:02;;;;;;;12.40;11.20;;;17.80;99.90;;;;;;4998051;28;20774;-91
2021/08/26 08:26:29;;;;;;;12.17;10.97;;;17.60;99.90;;;;;;4999296;28;20474;-88
2021/08/26 08:28:56;;;;;;;14.20;12.70;;;17.40;99.90;;;;;;4997200;28;20822;-88
2021/08/26 08:31:23;;;;;;;16.17;12.43;;;17.30;99.90;;;;;;4998285;28;20464;-91
2021/08/26 08:33:51;;;;;;;15.80;13.40;;;17.10;99.90;;;;;;5000566;28;20460;-91
2021/08/26 08:36:20;;;;;;;15.10;13.70;;;17.00;99.90;;;;;;4997910;28;20487;-88
2021/08/26 08:38:46;;;;;;;17.07;14.80;;;16.90;99.90;;;;;;5011467;28;20462;-86
2021/08/26 08:41:16;;;;;;;15.73;14.13;;;16.80;99.90;;;;;;5001094;28;20940;-90
2021/08/26 08:43:43;;;;;;;15.57;14.00;;;16.80;99.90;;;;;;4997896;28;20815;-90
2021/08/26 08:46:10;;;;;;;17.20;14.67;;;16.70;99.90;;;;;;5018466;28;20450;-86
2021/08/26 08:48:40;;;;;;;16.53;14.87;;;16.70;99.90;;;;;;5006617;28;20971;-89
2021/08/26 08:51:09;;;;;;;16.53;15.03;;;16.60;99.90;;;;;;4999448;28;20494;-89
2021/08/26 08:53:37;;;;;;;17.33;15.57;;;16.70;99.90;;;;;;5003697;28;20458;-88
2021/08/26 08:56:05;;;;;;;18.67;15.87;;;16.70;99.90;;;;;;5006380;28;20470;-89
2021/08/26 08:58:36;;;;;;;18.37;16.23;;;16.70;99.90;;;;;;5004710;28;20443;-86
2021/08/26 09:01:03;;;;;;;19.03;14.50;;;16.80;99.90;;;;;;5009079;28;20439;-87
2021/08/26 09:03:30;;;;;;;15.23;13.73;;;16.80;99.90;;;;;;4999641;28;20443;-86
2021/08/26 09:05:59;;;;;;;16.03;14.43;;;16.90;99.90;;;;;;4997243;28;20475;-89
2021/08/26 09:08:29;;;;;;;15.00;13.67;;;16.90;99.90;;;;;;4997910;28;20513;-88
2021/08/26 09:11:10;;;;;;;19.57;16.23;;;17.00;99.90;;;;;;5013225;28;20640;-89
2021/08/26 09:13:37;;;;;;;15.23;13.73;;;17.10;99.90;;;;;;5012444;28;20440;-87
2021/08/26 09:16:04;;;;;;;17.50;15.70;;;17.10;99.90;;;;;;5018068;28;20459;-86
2021/08/26 09:18:31;;;;;;;15.77;13.67;;;17.10;99.90;;;;;;5002889;28;20435;-87
2021/08/26 09:21:00;;;;;;;17.70;15.80;;;17.30;99.90;;;;;;4999651;28;20531;-86
2021/08/26 09:23:30;;;;;;;15.77;14.37;;;17.40;99.90;;;;;;5015305;28;20456;-87
2021/08/26 09:26:17;;;;;;;16.30;14.80;;;17.40;99.90;;;;;;5016402;28;20451;-88
2021/08/26 09:28:44;;;;;;;18.67;16.67;;;17.40;99.90;;;;;;5012435;28;20443;-88
2021/08/26 09:31:16;;;;;;;18.37;16.57;;;17.40;99.90;;;;;;5012736;28;20487;-87
2021/08/26 09:33:56;;;;;;;21.90;15.57;;;17.50;99.90;;;;;;5016261;28;20458;-88
2021/08/26 09:39:02;;;;;;;19.63;17.63;;;17.30;99.90;;;;;;3348445;26;20516;-86
2021/08/26 09:41:37;;;;;;;20.23;18.40;;;17.30;99.90;;;;;;5020726;28;20445;-88
2021/08/26 09:44:05;;;;;;;19.07;17.30;;;17.20;99.90;;;;;;5026230;28;20485;-89
2021/08/26 09:46:32;;;;;;;17.30;15.63;;;17.10;99.90;;;;;;5023435;28;20462;-87
2021/08/26 09:49:04;;;;;;;18.67;16.87;;;17.00;99.90;;;;;;5021267;28;20794;-88
2021/08/26 09:51:33;;;;;;;16.57;15.07;;;17.00;99.90;;;;;;5021395;28;20539;-90
2021/08/26 09:54:28;;;;;;;15.10;12.77;;;17.10;99.90;;;;;;5019541;28;20825;-90
2021/08/26 09:56:56;;;;;;;15.00;13.43;;;17.30;99.90;;;;;;5020339;28;20477;-89
2021/08/26 09:59:42;;;;;;;15.87;14.17;;;17.50;99.90;;;;;;5024958;28;20553;-87
2021/08/26 10:02:11;;;;;;;14.67;13.17;;;17.50;99.90;;;;;;5025897;28;20445;-88
2021/08/26 10:04:43;;;;;;;16.63;15.07;;;17.60;99.90;;;;;;5022085;28;20454;-88
2021/08/26 10:07:10;;;;;;;14.60;13.20;;;17.50;99.90;;;;;;5032506;28;20513;-85
2021/08/26 10:09:41;;;;;;;13.40;12.10;;;17.50;99.90;;;;;;5035089;28;20556;-86
2021/08/26 10:12:12;;;;;;;12.00;10.80;;;17.40;99.90;;;;;;5021850;28;20461;-85
2021/08/26 10:14:39;;;;;;;10.57;9.50;;;17.30;99.90;;;;;;5025035;28;20455;-85
2021/08/26 10:17:06;;;;;;;9.70;8.83;;;17.20;99.90;;;;;;5025761;28;20466;-86
2021/08/26 10:19:32;;;;;;;9.50;8.70;;;17.00;99.90;;;;;;5024045;28;20453;-86
2021/08/26 10:21:59;;;;;;;8.47;7.77;;;16.90;99.90;;;;;;5026026;28;20449;-86
2021/08/26 10:24:26;;;;;;;9.30;8.40;;;16.90;99.90;;;;;;5036484;28;21198;-85
2021/08/26 10:26:58;;;;;;;9.03;8.13;;;16.80;99.90;;;;;;5032600;28;20462;-90
2021/08/26 10:29:25;;;;;;;10.87;8.20;;;16.80;99.90;;;;;;5032762;28;20427;-83
2021/08/26 10:31:54;;;;;;;9.23;8.40;;;16.70;99.90;;;;;;5034209;28;20510;-85
2021/08/26 10:34:23;;;;;;;8.20;7.40;;;16.70;99.90;;;;;;5027155;28;20454;-85
2021/08/26 10:37:20;;;;;;;7.63;6.93;;;16.70;99.90;;;;;;5024849;28;20481;-83
2021/08/26 10:39:48;;;;;;;5.97;5.47;;;16.80;99.90;;;;;;5024225;28;20454;-84
2021/08/26 10:42:42;;;;;;;5.83;5.33;;;17.00;99.90;;;;;;5021775;28;20458;-86
2021/08/26 10:45:22;;;;;;;5.77;5.27;;;17.20;99.90;;;;;;5024693;28;20459;-85
2021/08/26 10:48:18;;;;;;;5.17;4.60;;;17.30;99.90;;;;;;5022038;28;20558;-86
2021/08/26 10:50:49;;;;;;;5.13;4.73;;;17.50;99.90;;;;;;5022368;28;20488;-85
2021/08/26 10:53:26;;;;;;;5.03;4.53;;;17.70;99.90;;;;;;5020074;28;20489;-85
2021/08/26 10:55:54;;;;;;;5.40;4.90;;;17.90;99.90;;;;;;5022449;28;20473;-85
2021/08/26 10:58:38;;;;;;;7.40;5.33;;;18.10;99.90;;;;;;5021242;28;20466;-84
2021/08/26 11:01:07;;;;;;;6.63;5.23;;;18.50;99.90;;;;;;5020999;28;20446;-85
2021/08/26 11:03:57;;;;;;;6.80;6.10;;;18.80;99.90;;;;;;5022242;28;20947;-84
2021/08/26 11:06:45;;;;;;;6.50;5.90;;;19.20;99.90;;;;;;5022000;28;20892;-85
2021/08/26 11:09:32;;;;;;;5.67;5.13;;;19.70;99.90;;;;;;5021502;28;20959;-85
2021/08/26 11:12:04;;;;;;;9.60;8.60;;;20.40;99.90;;;;;;5020948;28;20453;-85
2021/08/26 11:14:34;;;;;;;7.00;6.40;;;20.70;99.90;;;;;;5020200;28;20468;-85
2021/08/26 11:17:03;;;;;;;5.87;5.27;;;21.10;99.90;;;;;;5021158;28;20500;-85
2021/08/26 11:19:32;;;;;;;5.77;4.67;;;21.30;99.90;;;;;;5019566;28;20950;-86
2021/08/26 11:22:05;;;;;;;6.40;5.00;;;21.80;99.90;;;;;;5034477;28;20485;-84
2021/08/26 11:25:00;;;;;;;7.83;5.10;;;22.40;99.90;;;;;;5030772;28;20452;-84
2021/08/26 11:27:32;;;;;;;6.43;5.20;;;22.70;98.50;;;;;;5021840;28;20531;-84
2021/08/26 11:30:22;;;;;;;6.73;6.10;;;22.90;97.40;;;;;;5022050;28;20483;-85
2021/08/26 11:32:48;;;;;;;6.00;5.50;;;23.00;97.00;;;;;;5021344;28;20452;-85
2021/08/26 11:35:15;;;;;;;5.83;5.33;;;23.00;95.00;;;;;;5022756;28;20459;-85
2021/08/26 11:37:42;;;;;;;6.87;6.17;;;22.90;95.10;;;;;;5021377;28;20480;-85
2021/08/26 11:40:10;;;;;;;8.13;6.60;;;22.70;94.60;;;;;;5021572;28;20922;-84
2021/08/26 11:42:39;;;;;;;7.57;6.33;;;22.40;94.70;;;;;;5020696;28;20463;-85
2021/08/26 11:45:14;;;;;;;7.50;6.80;;;22.00;95.30;;;;;;5022555;28;20446;-82
2021/08/26 11:47:43;;;;;;;7.77;6.97;;;21.40;95.90;;;;;;5025332;28;20470;-84
2021/08/26 11:50:12;;;;;;;8.10;7.30;;;21.00;96.10;;;;;;5025743;28;20536;-83
2021/08/26 11:52:40;;;;;;;10.87;7.97;;;20.80;96.50;;;;;;5020054;28;20504;-85
2021/08/26 11:55:07;;;;;;;8.37;7.57;;;20.60;97.50;;;;;;5019826;28;20453;-84
2021/08/26 11:57:34;;;;;;;8.43;6.70;;;20.50;97.80;;;;;;5029688;28;20462;-82
2021/08/26 12:00:13;;;;;;;7.33;6.63;;;20.30;97.30;;;;;;5030101;28;20455;-83
2021/08/26 12:02:41;;;;;;;8.93;7.60;;;20.30;97.80;;;;;;5026696;28;20460;-83
2021/08/26 12:05:14;;;;;;;13.53;7.80;;;20.10;98.00;;;;;;5030396;28;20459;-85
2021/08/26 12:07:43;;;;;;;10.90;7.40;;;20.10;98.30;;;;;;5019978;28;20483;-85
2021/08/26 12:10:13;;;;;;;7.77;7.07;;;20.10;98.90;;;;;;5021132;28;20571;-85
2021/08/26 12:12:54;;;;;;;8.63;7.13;;;20.20;98.10;;;;;;5019213;28;20459;-84
2021/08/26 12:15:28;;;;;;;9.93;8.90;;;20.20;97.90;;;;;;5020932;28;20453;-85
2021/08/26 12:17:56;;;;;;;7.53;6.83;;;20.60;97.90;;;;;;5019919;28;20541;-84
2021/08/26 12:20:24;;;;;;;7.67;6.90;;;21.80;96.30;;;;;;5020197;28;21018;-85
2021/08/26 12:22:51;;;;;;;7.20;6.50;;;23.90;93.40;;;;;;5020010;28;20443;-84
2021/08/26 12:25:24;;;;;;;7.30;6.40;;;27.00;84.90;;;;;;5018748;28;20817;-84
2021/08/26 12:27:52;;;;;;;6.50;5.70;;;28.30;74.90;;;;;;5020291;28;20886;-83
2021/08/26 12:30:39;;;;;;;6.83;6.23;;;29.70;70.20;;;;;;5024256;28;20477;-84
2021/08/26 12:33:10;;;;;;;10.33;8.80;;;30.80;63.70;;;;;;5029855;28;20445;-85
2021/08/26 12:35:43;;;;;;;7.60;6.83;;;30.60;61.00;;;;;;5028026;28;20455;-85
2021/08/26 12:38:11;;;;;;;7.20;6.20;;;29.00;63.50;;;;;;5038289;28;20469;-82
2021/08/26 12:40:50;;;;;;;7.20;6.23;;;28.00;65.70;;;;;;5032232;28;20454;-85
2021/08/26 12:43:17;;;;;;;6.90;6.07;;;27.10;67.60;;;;;;5030698;28;20456;-86
2021/08/26 12:45:45;;;;;;;8.10;7.30;;;26.70;68.40;;;;;;5032876;28;20513;-84
2021/08/26 12:48:23;;;;;;;9.03;7.13;;;26.50;69.60;;;;;;5039777;28;20823;-83